Time;durP1;ratioP1;P1;durP2;ratioP2;P2;SDS_P1;SDS_P2;PMS_P1;PMS_P2;Temp;Humidity;BMP_temperature;BMP_pressure;BME280_temperature;BME280_humidity;BME280_pressure;Samples;Min_cycle;Max_cycle;Signal;HPM_P1;HPM_P2
2022/05/23 00:08:57;;;;;;;4.22;1.90;;;18.60;99.90;;;;;;6684797;89;20221;-79
2022/05/23 00:18:58;;;;;;;3.97;1.98;;;18.50;99.90;;;;;;6695677;88;20194;-80
2022/05/23 00:28:59;;;;;;;3.78;1.87;;;18.20;99.90;;;;;;6700027;88;20249;-79
2022/05/23 00:39:00;;;;;;;5.35;2.00;;;18.10;99.90;;;;;;6692437;88;20180;-80
2022/05/23 00:49:05;;;;;;;5.07;1.90;;;18.00;99.90;;;;;;6714245;87;20218;-80
2022/05/23 00:59:06;;;;;;;5.75;2.67;;;17.60;99.90;;;;;;6709120;87;20202;-79
2022/05/23 01:09:06;;;;;;;4.60;2.10;;;18.00;99.90;;;;;;6703747;88;20191;-80
2022/05/23 01:19:08;;;;;;;4.40;2.10;;;17.80;99.90;;;;;;6699717;88;20510;-80
2022/05/23 01:29:13;;;;;;;3.90;2.00;;;17.50;99.90;;;;;;6711724;88;20225;-79
2022/05/23 01:39:14;;;;;;;5.53;2.30;;;17.60;99.90;;;;;;6709796;88;20207;-80
2022/05/23 01:49:15;;;;;;;4.15;2.12;;;17.70;99.90;;;;;;6698354;88;20208;-80
2022/05/23 02:09:35;;;;;;;3.20;2.10;;;17.70;99.90;;;;;;6696482;88;20188;-80
2022/05/23 02:19:36;;;;;;;4.03;2.28;;;17.40;99.90;;;;;;6715573;88;20181;-80
2022/05/23 02:29:37;;;;;;;4.43;2.30;;;17.30;99.90;;;;;;6687850;88;20968;-80
2022/05/23 02:39:37;;;;;;;4.57;2.28;;;17.10;99.90;;;;;;6689912;88;20184;-80
2022/05/23 02:49:38;;;;;;;4.83;2.40;;;17.10;99.90;;;;;;6704654;88;20301;-80
2022/05/23 02:59:38;;;;;;;4.12;2.10;;;17.20;99.90;;;;;;6691531;88;20227;-79
2022/05/23 03:09:39;;;;;;;6.32;2.55;;;16.90;99.90;;;;;;6686590;88;20258;-80
2022/05/23 03:19:40;;;;;;;5.45;2.53;;;17.00;99.90;;;;;;6683591;88;20203;-80
2022/05/23 03:29:40;;;;;;;5.20;2.67;;;16.80;99.90;;;;;;6715130;88;20198;-80
2022/05/23 03:39:41;;;;;;;5.10;2.70;;;16.80;99.90;;;;;;6688164;88;20195;-80
2022/05/23 03:49:41;;;;;;;5.05;2.50;;;17.10;99.90;;;;;;6686977;88;20181;-79
2022/05/23 03:59:42;;;;;;;4.30;2.05;;;17.00;99.90;;;;;;6723400;88;20209;-80
2022/05/23 04:09:42;;;;;;;3.62;2.33;;;17.20;99.90;;;;;;6683661;89;20736;-78
2022/05/23 04:19:43;;;;;;;6.82;2.72;;;17.10;99.90;;;;;;6680643;88;20195;-78
2022/05/23 04:29:43;;;;;;;4.57;2.15;;;17.20;99.90;;;;;;6698363;88;20200;-78
2022/05/23 04:39:44;;;;;;;4.45;2.30;;;17.20;99.90;;;;;;6696285;88;20161;-79
2022/05/23 04:49:50;;;;;;;6.22;2.50;;;17.00;99.90;;;;;;6705780;88;20266;-79
2022/05/23 04:59:50;;;;;;;;;;;17.20;99.90;;;;;;6695133;88;20185;-78
2022/05/23 05:09:50;;;;;;;4.93;2.10;;;17.20;99.90;;;;;;6703859;77;20059;-78
2022/05/23 05:19:51;;;;;;;5.20;2.30;;;17.40;99.90;;;;;;6690022;88;20186;-78
2022/05/23 05:29:52;;;;;;;4.15;2.10;;;17.40;99.90;;;;;;6718832;88;20209;-78
2022/05/23 05:39:54;;;;;;;5.22;2.12;;;17.70;99.90;;;;;;6697273;88;20326;-78
2022/05/23 05:49:59;;;;;;;8.25;2.28;;;17.90;99.90;;;;;;6686745;88;20210;-78
2022/05/23 05:59:59;;;;;;;5.12;1.95;;;18.20;99.90;;;;;;6669987;88;20326;-81
2022/05/23 06:20:20;;;;;;;4.40;1.90;;;18.40;99.90;;;;;;6658108;89;20317;-77
2022/05/23 06:30:21;;;;;;;3.83;2.00;;;18.60;99.90;;;;;;6648912;89;20357;-78
2022/05/23 06:40:21;;;;;;;7.37;1.98;;;18.50;99.90;;;;;;6649325;89;20192;-77
2022/05/23 06:50:22;;;;;;;5.00;1.87;;;18.40;99.90;;;;;;6650074;89;20225;-77
2022/05/23 07:00:23;;;;;;;5.63;2.10;;;18.20;99.90;;;;;;6653039;89;20188;-77
2022/05/23 07:20:43;;;;;;;3.53;2.20;;;18.10;99.90;;;;;;6658997;88;20620;-78
2022/05/23 07:30:46;;;;;;;3.65;2.17;;;18.30;99.90;;;;;;6650978;89;20255;-78
2022/05/23 07:40:53;;;;;;;5.03;2.20;;;18.40;99.90;;;;;;6653106;89;20317;-78
2022/05/23 07:50:55;;;;;;;5.55;2.28;;;18.70;99.90;;;;;;6651000;89;20206;-78
2022/05/23 08:00:55;;;;;;;4.87;2.20;;;19.10;99.90;;;;;;6651777;89;20697;-78
2022/05/23 08:10:56;;;;;;;6.65;2.33;;;18.80;99.90;;;;;;6652457;88;20259;-79
2022/05/23 08:20:57;;;;;;;4.93;2.45;;;18.70;99.90;;;;;;6651281;89;20193;-79
2022/05/23 08:30:57;;;;;;;4.25;2.50;;;19.00;99.90;;;;;;6651733;89;21081;-78
2022/05/23 08:41:07;;;;;;;4.90;2.20;;;19.20;99.90;;;;;;6648755;88;20210;-78
2022/05/23 08:51:22;;;;;;;3.45;2.12;;;19.60;99.90;;;;;;6649128;89;20663;-78
2022/05/23 09:02:08;;;;;;;5.85;2.30;;;20.10;99.90;;;;;;6662730;88;20188;-79
2022/05/23 09:12:12;;;;;;;6.85;2.47;;;20.70;99.90;;;;;;6647916;89;20184;-78
2022/05/23 09:22:19;;;;;;;6.30;2.40;;;21.30;99.90;;;;;;6651307;89;20228;-79
2022/05/23 09:32:24;;;;;;;5.55;2.00;;;21.80;99.90;;;;;;6656789;89;20224;-78
2022/05/23 09:52:57;;;;;;;4.50;2.05;;;21.20;99.90;;;;;;6645888;89;20219;-78
2022/05/23 10:02:57;;;;;;;4.32;1.80;;;22.00;99.90;;;;;;6652744;89;20220;-78
2022/05/23 10:13:26;;;;;;;5.20;2.22;;;23.00;99.90;;;;;;6654964;88;20249;-78
2022/05/23 10:23:33;;;;;;;5.78;2.60;;;23.50;99.90;;;;;;6644652;88;20208;-79
2022/05/23 10:33:34;;;;;;;6.18;2.55;;;24.00;99.90;;;;;;6658583;88;20193;-79
2022/05/23 10:43:55;;;;;;;8.52;2.50;;;23.90;99.90;;;;;;6653164;89;20183;-79
2022/05/23 10:54:40;;;;;;;5.82;2.67;;;23.90;99.90;;;;;;6654102;89;20791;-79
2022/05/23 11:05:04;;;;;;;7.47;2.25;;;25.20;99.90;;;;;;6658788;89;20210;-79
2022/05/23 11:15:46;;;;;;;4.18;2.30;;;25.20;99.90;;;;;;6672627;78;20215;-81
2022/05/23 11:25:51;;;;;;;3.35;2.20;;;25.00;99.90;;;;;;6669911;88;20188;-81
2022/05/23 11:35:52;;;;;;;5.07;2.30;;;24.30;99.90;;;;;;6666793;89;20213;-81
2022/05/23 11:45:57;;;;;;;3.58;2.08;;;23.80;99.90;;;;;;6666840;89;20220;-80
2022/05/23 11:55:57;;;;;;;6.45;2.20;;;23.80;99.90;;;;;;6668004;89;20248;-83
2022/05/23 12:06:14;;;;;;;6.47;2.33;;;23.80;99.90;;;;;;6667634;89;20199;-83
2022/05/23 12:16:27;;;;;;;6.00;2.20;;;23.90;99.90;;;;;;6661338;89;20200;-83
2022/05/23 12:26:33;;;;;;;4.23;2.20;;;24.30;99.90;;;;;;6664913;89;20210;-83
2022/05/23 12:36:53;;;;;;;4.80;2.20;;;24.70;99.90;;;;;;6667119;89;20192;-82
2022/05/23 12:47:20;;;;;;;8.18;2.50;;;25.00;99.90;;;;;;6665444;89;20188;-84
2022/05/23 12:57:42;;;;;;;6.62;2.20;;;25.10;99.90;;;;;;6666894;89;20172;-81
2022/05/23 13:08:22;;;;;;;5.85;2.45;;;24.60;99.90;;;;;;6657161;88;20305;-84
2022/05/23 13:29:09;;;;;;;9.82;3.03;;;22.70;99.90;;;;;;6621930;89;20664;-82
2022/05/23 13:39:14;;;;;;;5.40;3.28;;;22.20;99.90;;;;;;6645289;89;20228;-81
2022/05/23 13:49:24;;;;;;;8.30;3.40;;;21.90;99.90;;;;;;6650327;89;20658;-82
2022/05/23 13:59:35;;;;;;;7.97;3.70;;;21.80;99.90;;;;;;6651562;89;20191;-81
2022/05/23 14:09:45;;;;;;;9.30;3.37;;;22.10;99.90;;;;;;6737712;88;20233;-81
2022/05/23 14:19:49;;;;;;;10.98;3.65;;;22.70;99.90;;;;;;6653030;89;20229;-81
2022/05/23 14:30:09;;;;;;;7.87;3.00;;;23.10;99.90;;;;;;6652141;88;20225;-81
2022/05/23 14:40:12;;;;;;;9.85;3.53;;;23.20;99.90;;;;;;6650221;89;20213;-81
2022/05/23 14:50:21;;;;;;;8.50;3.00;;;23.10;99.90;;;;;;6651700;88;20196;-81
2022/05/23 15:00:38;;;;;;;7.72;3.50;;;22.90;99.90;;;;;;6648146;88;20263;-79
2022/05/23 15:10:39;;;;;;;10.82;4.85;;;22.20;99.90;;;;;;6639901;88;20181;-79
2022/05/23 15:20:40;;;;;;;11.05;5.50;;;21.10;99.90;;;;;;6638454;88;20213;-79
2022/05/23 15:30:42;;;;;;;12.93;5.65;;;20.30;99.90;;;;;;6662656;89;20213;-83
2022/05/23 15:40:54;;;;;;;12.43;6.37;;;20.10;99.90;;;;;;6678372;88;20615;-81
2022/05/23 15:51:08;;;;;;;11.43;6.45;;;19.50;99.90;;;;;;6668989;88;20195;-82
2022/05/23 16:01:13;;;;;;;12.10;6.07;;;19.50;99.90;;;;;;6663102;78;20187;-78
2022/05/23 16:11:43;;;;;;;6.65;4.50;;;19.50;99.90;;;;;;6671094;88;20206;-79
2022/05/23 16:21:45;;;;;;;6.18;3.47;;;19.10;99.90;;;;;;6650402;88;20192;-78
2022/05/23 16:31:49;;;;;;;8.48;4.00;;;18.90;99.90;;;;;;6660610;89;20606;-78
2022/05/23 16:41:51;;;;;;;7.13;4.03;;;18.80;99.90;;;;;;6643034;88;20196;-79
2022/05/23 16:51:52;;;;;;;10.18;5.18;;;18.80;99.90;;;;;;6642945;88;20173;-77
2022/05/23 17:01:54;;;;;;;9.70;5.10;;;19.00;99.90;;;;;;6653538;88;20185;-77
2022/05/23 17:11:54;;;;;;;11.07;5.10;;;19.10;99.90;;;;;;6636353;89;20200;-77
2022/05/23 17:21:55;;;;;;;8.23;4.10;;;19.50;99.90;;;;;;6635474;89;20760;-78
2022/05/23 17:31:58;;;;;;;7.97;4.40;;;20.00;99.90;;;;;;6647077;89;20235;-78
2022/05/23 17:41:59;;;;;;;9.38;4.20;;;20.10;99.90;;;;;;6636103;89;20194;-78
2022/05/23 17:51:59;;;;;;;8.13;3.42;;;19.90;99.90;;;;;;6642933;89;20998;-77
2022/05/23 18:02:00;;;;;;;9.32;3.83;;;19.90;99.90;;;;;;6649277;89;20222;-79
2022/05/23 18:12:01;;;;;;;5.45;3.60;;;19.70;99.90;;;;;;6642212;89;20249;-78
2022/05/23 18:22:02;;;;;;;7.85;3.90;;;19.50;99.90;;;;;;6644148;88;20197;-78
2022/05/23 18:32:04;;;;;;;7.57;3.90;;;19.40;99.90;;;;;;6662388;88;20233;-78
2022/05/23 18:42:05;;;;;;;7.05;3.70;;;19.50;99.90;;;;;;6639599;88;20256;-78
2022/05/23 18:52:06;;;;;;;8.02;3.83;;;19.30;99.90;;;;;;6639859;89;20338;-78
2022/05/23 19:02:06;;;;;;;6.28;3.45;;;19.30;99.90;;;;;;6645405;88;20860;-78
2022/05/23 19:12:11;;;;;;;3.28;2.25;;;19.20;99.90;;;;;;6639780;89;20185;-78
2022/05/23 19:22:12;;;;;;;4.75;2.50;;;18.90;99.90;;;;;;6638968;89;20196;-78
2022/05/23 19:32:12;;;;;;;5.60;3.42;;;18.20;99.90;;;;;;6657058;87;20613;-81
2022/05/23 19:42:16;;;;;;;13.15;10.88;;;17.60;99.90;;;;;;6652959;89;20251;-79
2022/05/23 19:52:17;;;;;;;28.20;19.20;;;16.90;99.90;;;;;;6647902;89;20227;-79
2022/05/23 20:12:41;;;;;;;44.55;29.83;;;16.00;99.90;;;;;;6654038;89;20270;-79
2022/05/23 20:22:44;;;;;;;37.90;25.73;;;15.70;99.90;;;;;;6645566;88;20711;-79
2022/05/23 20:32:45;;;;;;;26.98;19.95;;;15.60;99.90;;;;;;6640498;89;20212;-79
2022/05/23 20:42:46;;;;;;;22.48;15.15;;;15.70;99.90;;;;;;6652022;89;20227;-79
2022/05/23 20:52:47;;;;;;;22.75;14.52;;;15.60;99.90;;;;;;6637896;89;20206;-79
2022/05/23 21:02:48;;;;;;;19.60;14.18;;;15.40;99.90;;;;;;6648299;88;20228;-79
2022/05/23 21:12:49;;;;;;;22.92;14.70;;;15.40;99.90;;;;;;6661962;89;20204;-79
2022/05/23 21:22:49;;;;;;;23.70;15.30;;;15.20;99.90;;;;;;6655753;88;20229;-78
2022/05/23 21:32:50;;;;;;;22.23;13.93;;;15.20;99.90;;;;;;6699825;88;20680;-78
2022/05/23 21:53:11;;;;;;;20.15;11.23;;;15.10;99.90;;;;;;6646987;89;20234;-78
2022/05/23 22:03:11;;;;;;;17.62;9.80;;;15.10;99.90;;;;;;6671511;89;20226;-78
2022/05/23 22:13:12;;;;;;;16.45;8.27;;;15.10;99.90;;;;;;6655457;88;20807;-76
2022/05/23 22:23:12;;;;;;;12.95;8.18;;;15.00;99.90;;;;;;6648334;89;20258;-78
2022/05/23 22:33:13;;;;;;;13.73;8.40;;;15.10;99.90;;;;;;6653073;89;20237;-78
2022/05/23 22:43:14;;;;;;;11.57;7.68;;;15.30;99.90;;;;;;6644051;89;20574;-78
2022/05/23 22:53:15;;;;;;;11.45;7.62;;;15.20;99.90;;;;;;6658081;88;20329;-78
2022/05/23 23:13:34;;;;;;;12.60;8.07;;;15.20;99.90;;;;;;6642704;89;20181;-77
2022/05/23 23:23:35;;;;;;;12.00;7.87;;;15.20;99.90;;;;;;6655029;89;20354;-80
2022/05/23 23:43:55;;;;;;;11.93;7.82;;;15.40;99.90;;;;;;6631673;89;20189;-77
2022/05/23 23:53:56;;;;;;;12.60;8.05;;;15.30;99.90;;;;;;6631395;88;20212;-77
